Tiempo atmosférico en la estación meteorológica de Jerez De Los Caballeros, Badajoz (381 m.)



Fecha
DESCASC
Temp. máxima en grados centígrados (hora)
DESCASC
Temp. mínima en grados centígrados (hora)
DESCASC
Temp. media en grados centígrados
DESCASC
Racha de viento máxima en m/sg (hora)
DESCASC
Velocidad máxima media en intervalos de 10 minutos(hora)
DESCASC
Precipitaciones diarias en mm
DESCASC
Precipitaciones de 00:00 a 06:00 en mm
DESCASC
Precipitaciones de 06:00 a 12:00 en mm
DESCASC
Precipitaciones de 12:00 a 18:00 en mm
DESCASC
Precipitaciones de 18:00 a 24:00 en mm
DESCASC
18-04-2019 17.3 (16:30) 9.2 (08:00) 13.2 10.28 (17:30) 6.11 (18:00) 1 0 0.4 0 0.6
17-04-2019 19.1 (15:00) 9.6 (07:50) 14.4 15.83 (16:20) 11.11 (16:20) 3.4 0 0 2.4 1
16-04-2019 23.5 (17:30) 6.3 (00:00) 14.9 7.78 (17:30) 5 (18:40) 0 0 0 0 0
15-04-2019 19.7 (14:30) 11.2 (00:00) 15.5 11.67 (20:40) 8.06 (16:30) 0 0 0 0 0
14-04-2019 24.6 (16:20) 12.8 (00:00) 18.7 7.78 (16:20) 4.44 (16:20) 0 0 0 0 0
13-04-2019 22.2 (17:40) 5.8 (00:00) 14 9.17 (17:40) 6.39 (19:40) 0 0 0 0 0
12-04-2019 20.6 (17:40) 5.1 (00:00) 12.9 8.89 (16:40) 5.83 (16:40) 0 0 0 0 0
11-04-2019 18.6 (18:10) 5.3 (00:00) 12 9.72 (00:10) 6.11 (00:10) 0 0 0 0 0
10-04-2019 16.9 (18:50) 8.1 (00:00) 12.5 13.33 (15:40) 9.17 (15:30) 0 0 0 0 0
09-04-2019 15.5 (16:30) 8.1 (00:00) 11.8 16.67 (13:10) 11.94 (13:10) 2.2 0 1.4 0.8 0
08-04-2019 17.2 (18:10) 9.4 (00:00) 13.3 14.44 (17:50) 10.28 (15:50) 4.4 3 1.4 0 0
07-04-2019 14.1 (17:00) 7.7 (00:00) 10.9 12.5 (23:50) 9.44 (23:40) 5.2 0.6 0.8 0.4 3.4
06-04-2019 13.5 (15:10) 6.1 (00:00) 9.8 22.5 (15:40) 13.06 (15:30) 4.4 0.2 1.4 1.4 1.4
05-04-2019 12.3 (17:30) 5.9 (00:00) 9.1 19.17 (18:40) 12.22 (17:20) 13.8 5.2 2 0.2 6.4
04-04-2019 16.2 (17:30) 5 (00:00) 10.6 13.33 (18:40) 8.89 (20:10) 0 0 0 0 0
03-04-2019 16.7 (16:20) 6.8 (00:00) 11.8 11.94 (14:10) 7.22 (14:30) 0 0 0 0 0
02-04-2019 20.7 (17:30) 8.5 (00:00) 14.6 8.33 (18:50) 6.11 (18:50) 0 0 0 0 0
01-04-2019 20.6 (15:40) 10.2 (00:00) 15.4 10.83 (16:40) 6.94 (18:30) 7.6 0.2 0 0 7.4
31-03-2019 20.3 (15:40) 8.2 (00:00) 14.2 11.94 (18:40) 8.61 (18:40) 32 0 0 0 32
30-03-2019 24.1 (16:00) 9.2 (00:00) 16.7 11.67 (22:00) 9.17 (22:00) 7.2 0 0 0 7.2
29-03-2019 24.3 (15:20) 4.9 (00:00) 14.6 8.61 (09:30) 6.39 (09:40) 0 0 0 0 0
28-03-2019 21.2 (15:50) 2.9 (00:00) 12.1 13.61 (13:30) 9.17 (13:30) 0 0 0 0 0
27-03-2019 21.3 (17:00) 8.4 (00:00) 14.8 16.94 (15:20) 12.78 (15:20) 0 0 0 0 0
26-03-2019 24.6 (16:50) 8.5 (00:00) 16.6 15 (12:00) 10.83 (11:50) 0 0 0 0 0
25-03-2019 22.5 (15:40) 4.9 (00:00) 13.7 15 (16:50) 10.83 (15:50) 0 0 0 0 0
24-03-2019 21.2 (15:40) 7.9 (00:00) 14.6 14.44 (14:40) 10 (13:40) 0 0 0 0 0
23-03-2019 21 (15:00) 4.6 (00:00) 12.8 18.33 (11:40) 13.33 (12:00) 0 0 0 0 0
22-03-2019 19 (16:40) 0.8 (00:00) 9.9 15.56 (14:00) 8.61 (12:50) 0 0 0 0 0
21-03-2019 18.3 (16:10) 1.6 (00:00) 9.9 12.78 (12:50) 8.61 (13:00) 0 0 0 0 0

Gráficas

Temp. máximas Temp. mínimas Temp. medias Precipitaciones Rachas de viento máximas Velocidades máximas media en intervalos de 10 minutos

Datos horarios

Fecha y hora oficial Temperatura (ºC) Velocidad del viento (km/h) Dirección del viento Racha (km/h) Dirección de racha Precipitación (mm) Presión (hPa) Tendencia (hPa) Humedad (%)
2019-04-19 23:00:00 11 11 Este 17 Nordeste 0.4 972.1 1.7 90
2019-04-19 22:00:00 11.4 15 Nordeste 26 Nordeste 0.4 971.7 1.9 84
2019-04-19 21:00:00 11.5 12 Este 26 Norte 0.4 971 1.4 82
2019-04-19 20:00:00 12.5 21 Norte 28 Norte 0.6 970.4 0.5 75
2019-04-19 19:00:00 14.7 14 Norte 18 Norte 0 969.8 -0.3 65
2019-04-19 18:00:00 17 4 Sudoeste 12 Sudoeste 0 969.6 -0.4 58
2019-04-19 17:00:00 15.1 6 Sudoeste 12 Oeste 0 969.9 -0.7 68
2019-04-19 16:00:00 14.3 4 Sur 30 Norte 0 970.1 -0.4 70
2019-04-19 15:00:00 12.4 18 Norte 31 Norte 2.6 970 -0.8 75
2019-04-19 14:00:00 10.4 23 Noroeste 43 Noroeste 13.4 970.6 0.2 79
2019-04-19 13:00:00 16.1 6 Este 14 Este 0 970.5 0.5 67
2019-04-19 12:00:00 14.4 3 Sur 7 Sudoeste 0 970.8 0.8 75
2019-04-19 11:00:00 13.2 2 Oeste 12 Este 0 970.4 0.8 84
2019-04-19 10:00:00 11.8 5 Sudeste 13 Oeste 0 970 0.7 90
2019-04-19 09:00:00 10 5 Oeste 9 Oeste 0.2 970 0.7 92
2019-04-19 08:00:00 9.8 8 Sudoeste 13 Sudoeste 0.2 969.6 0.1 92
2019-04-19 07:00:00 9.7 7 Oeste 10 Sudoeste 0.8 969.3 -0.2 92
2019-04-19 06:00:00 9.2 6 Sudoeste 8 Sudoeste 0 969.3 -0.2 92
2019-04-19 05:00:00 9 6 Sudoeste 10 Sudoeste 0 969.5 -0.5 92
2019-04-19 04:00:00 8.8 5 Sudoeste 12 Sudoeste 0 969.5 -0.8 92
2019-04-19 03:00:00 9 11 Sudoeste 13 Sudoeste 0 969.5 -0.9 91
2019-04-19 02:00:00 9.3 10 Oeste 13 Oeste 0 970 -0.5 90
2019-04-19 01:00:00 9.9 6 Sudoeste 8 Sudoeste 0 970.3 0.4 88
2019-04-19 00:00:00 10.7 4 Sudoeste 5 Sudoeste 0 970.4 1.4 87
2019-04-18 23:00:00 11.1 2 Sudeste 12 Sudoeste 0 970.5 1.8 84
2019-04-18 22:00:00 11.3 7 Oeste 16 Norte 0.2 969.9 1.5 82
2019-04-18 21:00:00 11.1 12 Sudoeste 17 Sudoeste 0.2 969 1.1 80
2019-04-18 20:00:00 11.4 13 Sudoeste 22 Sudoeste 0.2 968.7 1.7 81
2019-04-18 19:00:00 11 15 Sudoeste 31 Sudoeste 0 968.4 0.9 80
2019-04-18 18:00:00 12.2 22 Sudoeste 37 Sudoeste 0 967.9 0.1 72
2019-04-18 17:00:00 16.3 11 Oeste 25 Oeste 0 967 -1.2 58
2019-04-18 16:00:00 16.5 8 Noroeste 17 Noroeste 0 967.5 -1.4 53
2019-04-18 15:00:00 16.7 8 Oeste 20 Sudoeste 0 967.8 -1.4 58
2019-04-18 14:00:00 15.4 12 Sudoeste 19 Sudoeste 0 968.2 -0.8 65
2019-04-18 13:00:00 14.7 7 Sudoeste 13 Oeste 0 968.9 0.1 73
2019-04-18 12:00:00 13.1 5 Sudoeste 9 Sudoeste 0 969.2 0.3 79
2019-04-18 11:00:00 11.5 3 Sudoeste 7 Sudoeste 0 969 0.8 90
2019-04-18 10:00:00 10.6 4 Sudoeste 8 Oeste 0 968.8 1.1 90
2019-04-18 09:00:00 10 3 Este 6 Este 0 968.9 1.3 91
2019-04-18 08:00:00 9.2 5 Este 8 Este 0 968.2 0.4 91
2019-04-18 07:00:00 9.6 5 Oeste 8 Este 0.4 967.7 -0.3 89
2019-04-18 06:00:00 10.4 3 Noroeste 6 Sudeste 0 967.6 -0.9 86
2019-04-18 05:00:00 10.3 4 Norte 7 Este 0 967.8 -1.1 85
2019-04-18 04:00:00 10.2 4 Este 7 Este 0 968 -1.1 84
2019-04-18 03:00:00 10.6 2 Nordeste 9 Nordeste 0 968.5 -0.4 83
2019-04-18 02:00:00 10.6 3 Este 11 Sudoeste 0 968.9 0.2 83
2019-04-18 01:00:00 10.7 3 Sudoeste 12 Sudoeste 0 969.1 1.3 83
2019-04-18 00:00:00 11 6 Sudoeste 20 Sudoeste 0 968.9 1.9 85
2019-04-17 23:00:00 11.2 18 Sudoeste 30 Sudoeste 0 968.7 2.1 83
2019-04-17 22:00:00 11.5 18 Sudoeste 28 Sudoeste 0 967.8 1.6 81
2019-04-17 21:00:00 11.8 19 Sudoeste 30 Sudoeste 0.2 967 1 82
2019-04-17 20:00:00 12.1 13 Sudoeste 22 Sur 0.8 966.6 0.7 83
2019-04-17 19:00:00 13.4 16 Sudoeste 23 Sudoeste 0 966.2 0.9 79
2019-04-17 18:00:00 12.7 10 Sudoeste 25 Sudoeste 0.6 966 1.2 87
2019-04-17 17:00:00 12.1 21 Sudoeste 57 Sudoeste 1.8 965.9 0.5 89
2019-04-17 16:00:00 15.6 33 Sudoeste 55 Sur 0 965.3 -0.7 75
2019-04-17 15:00:00 18.8 34 Sur 51 Sur 0 964.8 -1.6 52
2019-04-17 14:00:00 18.3 26 Sur 43 Sudoeste 0 965.4 -1 58
2019-04-17 13:00:00 17.9 24 Sur 41 Sur 0 966 -0.2 62
2019-04-17 12:00:00 16.1 18 Sur 35 Sur 0 966.4 0.3 66
2019-04-17 11:00:00 14.4 2 Este 12 Sudoeste 0 966.4 0.4 67
2019-04-17 10:00:00 12.3 5 Este 12 Este 0 966.2 0.7 75
2019-04-17 09:00:00 10.1 4 Este 10 Sur 0 966.1 0.2 80
2019-04-17 08:00:00 9.8 3 Sur 11 Sudoeste 0 966 -0.5 78
2019-04-17 07:00:00 11.1 4 Este 8 Este 0 965.5 -1.3 72
2019-04-17 06:00:00 11.6 5 Este 13 Oeste 0 965.9 -1.2 69
2019-04-17 05:00:00 12.3 11 Oeste 15 Oeste 0 966.5 -1.4 68
2019-04-17 04:00:00 12.6 10 Oeste 17 Sur 0 966.8 -1 64
2019-04-17 03:00:00 13.9 12 Sur 33 Sur 0 967.1 -1.2 58
2019-04-17 02:00:00 14.3 17 Sudoeste 29 Sur 0 967.9 -0.6 55
2019-04-17 01:00:00 16 17 Sur 26 Sur 0 967.8 -0.1 46
2019-04-17 00:00:00 16 6 Sudoeste 24 Sur 0 968.3 0.7 51
2019-04-16 23:00:00 16.6 9 Sudoeste 19 Sudoeste 0 968.5 0.8 50
2019-04-16 22:00:00 18.4 3 Este 16 Sudeste 0 967.9 0.1 37
2019-04-16 21:00:00 19.6 13 Sudeste 21 Sudeste 0 967.6 -0.4 32
2019-04-16 20:00:00 20.9 14 Sudeste 26 Sudeste 0 967.7 -1.1 31
2019-04-16 19:00:00 22.4 14 Sudeste 25 Sudeste 0 967.8 -2 32
2019-04-16 18:00:00 23 15 Sudeste 28 Sur 0 968 -3 32
2019-04-16 17:00:00 23 14 Sudeste 26 Sudeste 0 968.8 -3 33
2019-04-16 16:00:00 22.4 7 Sudeste 19 Sudeste 0 969.8 -2.8 34
2019-04-16 15:00:00 21.6 9 Sudeste 24 Sudeste 0 971 -2.1 32
2019-04-16 14:00:00 20.6 13 Sudeste 23 Sudeste 0 971.8 -1.5 35
2019-04-16 13:00:00 19 5 Sur 17 Nordeste 0 972.6 -1.4 51
2019-04-16 12:00:00 17 10 Nordeste 21 Este 0 973.1 -0.6 63
2019-04-16 11:00:00 14.9 16 Nordeste 22 Nordeste 0 973.3 -0.2 68
2019-04-16 10:00:00 11.4 11 Este 14 Este 0 974 0.7 88
2019-04-16 09:00:00 8.5 3 Este 13 Este 0 973.7 -0.2 93
2019-04-16 08:00:00 7.1 5 Nordeste 15 Este 0 973.5 -0.8 93
2019-04-16 07:00:00 7.4 9 Este 15 Este 0 973.3 -0.8 93
2019-04-16 06:00:00 8 6 Este 11 Nordeste 0 973.9 -0.9 90
2019-04-16 05:00:00 8.7 7 Este 10 Este 0 974.3 -0.8 90
2019-04-16 04:00:00 10.1 4 Sur 7 Sudoeste 0 974.1 -0.4 86
2019-04-16 03:00:00 10.3 5 Sudoeste 9 Sudoeste 0 974.8 0.6 84
2019-04-16 02:00:00 10.9 8 Sudoeste 10 Oeste 0 975.1 1.2 81
2019-04-16 01:00:00 11.4 3 Sur 14 Sudoeste 0 974.5 1.6 77
2019-04-16 00:00:00 12.2 12 Oeste 19 Oeste 0 974.2 2 72
2019-04-15 23:00:00 12.9 16 Oeste 24 Oeste 0 973.9 2.4 65
2019-04-15 22:00:00 14.5 17 Oeste 33 Oeste 0 972.9 1.9 58
2019-04-15 21:00:00 16.3 25 Oeste 42 Oeste 0 972.2 1.3 54
2019-04-15 20:00:00 17.8 23 Oeste 36 Oeste 0 971.5 0.7 53
2019-04-15 19:00:00 18.3 23 Oeste 39 Sudoeste 0 971 0.8 52
2019-04-15 18:00:00 18.1 22 Sudoeste 41 Sudoeste 0 970.9 0.9 59
2019-04-15 17:00:00 17.8 28 Oeste 41 Oeste 0 970.8 0.5 62
2019-04-15 16:00:00 19.4 25 Sudoeste 40 Oeste 0 970.2 -0.1 58
2019-04-15 15:00:00 19.6 22 Sudoeste 38 Sudoeste 0 970 -0.1 54
2019-04-15 14:00:00 19.3 18 Sudoeste 39 Oeste 0 970.3 0.5 48
2019-04-15 13:00:00 18 21 Oeste 34 Sudoeste 0 970.3 0.6 60
2019-04-15 12:00:00 17 22 Oeste 33 Sudoeste 0 970.1 0.5 68
2019-04-15 11:00:00 16.4 19 Sudoeste 28 Sudoeste 0 969.8 1 75
2019-04-15 10:00:00 14.3 4 Sudoeste 18 Oeste 0 969.7 1.6 89
2019-04-15 09:00:00 11.4 8 Sudoeste 11 Oeste 0 969.6 1.7 92
2019-04-15 08:00:00 11.6 8 Oeste 12 Sudoeste 0 968.8 0.3 93
2019-04-15 07:00:00 11.3 3 Sudoeste 8 Sudoeste 0 968.1 -0.9 92
2019-04-15 06:00:00 11.6 5 Este 9 Oeste 0 967.9 -1.7 92
2019-04-15 05:00:00 12 6 Sudoeste 9 Oeste 0 968.5 -2 90
2019-04-15 04:00:00 13.3 4 Este 8 Este 0 969 -2 88
2019-04-15 03:00:00 13.7 4 Este 10 Sudoeste 0 969.6 -1.6 88
2019-04-15 02:00:00 15.6 7 Este 10 Este 0 970.5 -0.7 79
2019-04-15 01:00:00 16.8 0 Calma 5 Nordeste 0 971 0 76
2019-04-15 00:00:00 17.9 4 Oeste 6 Sudoeste 0 971.2 0.3 71
2019-04-14 23:00:00 19.1 3 Sudoeste 6 Noroeste 0 971.2 0.3 65
2019-04-14 22:00:00 19.6 5 Oeste 12 Noroeste 0 971 0 62
2019-04-14 21:00:00 20.3 10 Oeste 17 Oeste 0 970.9 -0.5 61
2019-04-14 20:00:00 21.9 13 Oeste 17 Oeste 0 970.9 -1.1 54
2019-04-14 19:00:00 23.8 10 Oeste 21 Oeste 0 971 -1.7 48
2019-04-14 18:00:00 23.4 10 Sudoeste 24 Sudoeste 0 971.4 -1.8 51
2019-04-14 17:00:00 23.5 13 Sudoeste 28 Sudoeste 0 972 -1.7 49
2019-04-14 16:00:00 24.2 9 Sudoeste 23 Sudoeste 0 972.7 -1.6 46
2019-04-14 15:00:00 23.3 11 Sudoeste 20 Oeste 0 973.2 -1.6 48
2019-04-14 14:00:00 21.3 5 Sudoeste 12 Este 0 973.7 -1.1 54
2019-04-14 13:00:00 19.3 7 Sudeste 13 Este 0 974.3 -0.4 64
2019-04-14 12:00:00 17.4 7 Este 17 Este 0 974.8 -0.1 74
2019-04-14 11:00:00 15.4 10 Este 17 Este 0 974.8 0.1 81
2019-04-14 10:00:00 14.3 8 Nordeste 12 Este 0 974.7 0.6 84
2019-04-14 09:00:00 13.9 5 Sudoeste 9 Sudoeste 0 974.9 0.4 87
2019-04-14 08:00:00 13.4 4 Oeste 6 Este 0 974.7 -0.2 89
2019-04-14 07:00:00 12.8 5 Este 6 Este 0 974.1 -1.3 89
2019-04-14 06:00:00 13.5 4 Oeste 7 Oeste 0 974.5 -1 87
2019-04-14 05:00:00 13.3 2 Este 7 Sudoeste 0 974.9 -1 87
2019-04-14 04:00:00 13.1 5 Sudoeste 9 Sudoeste 0 975.4 -0.8 87
2019-04-14 03:00:00 13.4 2 Sudoeste 10 Sudoeste 0 975.5 -0.6 85
2019-04-14 02:00:00 13.6 7 Oeste 9 Oeste 0 975.9 -0.1 81
2019-04-14 01:00:00 14 6 Oeste 12 Sudoeste 0 976.2 0.8 78
2019-04-14 00:00:00 14.8 9 Sudoeste 19 Noroeste 0 976.1 1.1 75
2019-04-13 23:00:00 15.7 17 Oeste 27 Oeste 0 976 1.4 71
2019-04-13 22:00:00 16.8 12 Oeste 17 Oeste 0 975.4 0.9 50
2019-04-13 21:00:00 18.6 10 Oeste 21 Oeste 0 975 0.8 41
2019-04-13 20:00:00 19.6 16 Oeste 30 Oeste 0 974.6 0.2 37
2019-04-13 19:00:00 20.4 18 Oeste 29 Sudoeste 0 974.5 -0.3 32
2019-04-13 18:00:00 22 22 Sudoeste 33 Sudoeste 0 974.2 -0.9 31
2019-04-13 17:00:00 22 13 Sudoeste 28 Sudoeste 0 974.4 -0.9 32
2019-04-13 16:00:00 21.5 13 Oeste 26 Sudoeste 0 974.8 -0.9 34
2019-04-13 15:00:00 21.1 13 Sudoeste 27 Sudoeste 0 975.1 -0.9 35
2019-04-13 14:00:00 20.6 8 Sudoeste 22 Sudoeste 0 975.3 -0.7 37
2019-04-13 13:00:00 18.8 5 Este 11 Sudeste 0 975.7 -0.2 47
2019-04-13 12:00:00 16.4 4 Sudoeste 9 Este 0 976 0.2 63
2019-04-13 11:00:00 11.6 8 Este 11 Este 0 976 0.6 75
2019-04-13 10:00:00 8.2 4 Este 9 Este 0 975.9 0.9 85
2019-04-13 09:00:00 6.8 4 Este 10 Este 0 975.8 0.8 87
2019-04-13 08:00:00 5.9 5 Este 8 Este 0 975.4 0.8 87
2019-04-13 07:00:00 6.8 2 Este 5 Sudeste 0 975 0.3 81
2019-04-13 06:00:00 6.8 5 Este 7 Este 0 975 0 82
2019-04-13 05:00:00 8.1 3 Nordeste 5 Nordeste 0 974.6 -0.3 75
2019-04-13 04:00:00 9.5 4 Oeste 6 Oeste 0 974.7 -0.1 69
2019-04-13 03:00:00 9.6 4 Sudoeste 10 Sudoeste 0 975 0.3 66
2019-04-13 02:00:00 10.4 4 Sur 21 Sudoeste 0 974.9 0.4 62
2019-04-13 01:00:00 11.3 4 Este 9 Este 0 974.8 1.1 57
2019-04-13 00:00:00 12.6 6 Este 8 Este 0 974.7 1.6 51
2019-04-12 23:00:00 13.6 4 Nordeste 19 Norte 0 974.5 1.6 46
2019-04-12 22:00:00 15.6 14 Noroeste 20 Noroeste 0 973.7 0.8 36
2019-04-12 21:00:00 16.5 11 Oeste 18 Noroeste 0 973.1 0.2 38
2019-04-12 20:00:00 19.8 7 Oeste 24 Sudoeste 0 972.9 -0.1 28
2019-04-12 19:00:00 20.2 9 Sudoeste 29 Sudoeste 0 972.9 -0.7 30
2019-04-12 18:00:00 20 15 Oeste 26 Oeste 0 972.9 -1.1 29
2019-04-12 17:00:00 20 15 Sudoeste 32 Oeste 0 973 -1.4 31
2019-04-12 16:00:00 19.6 18 Oeste 26 Sudoeste 0 973.6 -1 33
2019-04-12 15:00:00 18.8 16 Oeste 28 Oeste 0 974 -1 35
2019-04-12 14:00:00 18.5 14 Oeste 27 Noroeste 0 974.4 -0.6 34
2019-04-12 13:00:00 17.8 10 Sur 20 Sudoeste 0 974.6 -0.2 42
2019-04-12 12:00:00 15.3 5 Sur 11 Sudoeste 0 975 0.2 57
2019-04-12 11:00:00 12.4 3 Sudoeste 7 Este 0 975 0.4 73
2019-04-12 10:00:00 9.1 3 Este 7 Este 0 974.8 0.5 83
2019-04-12 09:00:00 6.2 4 Este 9 Sudeste 0 974.8 0.7 90
2019-04-12 08:00:00 5.5 6 Este 9 Sudeste 0 974.6 0.4 91
2019-04-12 07:00:00 6.1 4 Sur 9 Este 0 974.3 0.1 89
2019-04-12 06:00:00 6.6 5 Nordeste 7 Este 0 974.1 -0.3 87
2019-04-12 05:00:00 8.2 5 Sudoeste 8 Sudoeste 0 974.2 -0.4 82
2019-04-12 04:00:00 8.9 4 Sudoeste 8 Sudoeste 0 974.2 -0.6 79
2019-04-12 03:00:00 9.8 6 Sudoeste 9 Sudoeste 0 974.4 -0.2 74
2019-04-12 02:00:00 10 5 Sudeste 9 Sudeste 0 974.6 0 72
2019-04-12 01:00:00 10.4 6 Este 20 Noroeste 0 974.8 0.7 67
2019-04-12 00:00:00 13.5 15 Noroeste 28 Noroeste 0 974.6 0.9 58
2019-04-11 23:00:00 13.7 16 Noroeste 27 Noroeste 0 974.6 1.2 51
2019-04-11 22:00:00 13.9 17 Noroeste 23 Noroeste 0 974.1 0.7 49
2019-04-11 21:00:00 15.1 15 Oeste 26 Noroeste 0 973.7 0.4 46
2019-04-11 20:00:00 17.3 14 Noroeste 27 Oeste 0 973.4 -0.2 40
2019-04-11 19:00:00 18.4 12 Noroeste 27 Noroeste 0 973.4 -0.6 35
2019-04-11 18:00:00 18.4 9 Oeste 32 Norte 0 973.3 -1 39
2019-04-11 17:00:00 17.4 15 Noroeste 28 Noroeste 0 973.6 -1.2 38
2019-04-11 16:00:00 18.3 10 Noroeste 25 Noroeste 0 974 -1.2 40
2019-04-11 15:00:00 17.5 12 Noroeste 26 Norte 0 974.3 -1.2 36
2019-04-11 14:00:00 16.8 15 Noroeste 23 Noroeste 0 974.8 -0.5 42
2019-04-11 13:00:00 15.4 8 Sur 15 Sudoeste 0 975.2 0.2 60
2019-04-11 12:00:00 13.6 8 Sudoeste 14 Sur 0 975.5 0.3 71
2019-04-11 11:00:00 11 5 Sur 12 Sudoeste 0 975.3 0.6 80
2019-04-11 10:00:00 8.4 7 Sudoeste 10 Sudoeste 0 975 0.5 86
2019-04-11 09:00:00 7 3 Sudoeste 7 Sudoeste 0 975.2 0.6 92
2019-04-11 08:00:00 5.3 7 Sudoeste 9 Sudoeste 0 974.7 -0.1 91
2019-04-11 07:00:00 5.4 6 Sudoeste 9 Sudoeste 0 974.5 -0.2 90
2019-04-11 06:00:00 6.5 9 Oeste 13 Oeste 0 974.6 -0.2 89
2019-04-11 05:00:00 6.8 9 Oeste 12 Oeste 0 974.8 -0.2 88
2019-04-11 04:00:00 7.4 5 Oeste 17 Oeste 0 974.7 -0.2 85
2019-04-11 03:00:00 8.4 12 Noroeste 17 Sudoeste 0 974.8 0.4 82
2019-04-11 02:00:00 8.6 13 Sudoeste 19 Sudoeste 0 975 0.6 80
2019-04-11 01:00:00 10 5 Sudoeste 35 Oeste 0 974.9 1 74
2019-04-11 00:00:00 11.3 23 Oeste 37 Noroeste 0 974.4 1.6 69
2019-04-10 23:00:00 12.2 20 Noroeste 35 Oeste 0 974.4 1.9 64
2019-04-10 22:00:00 12.8 18 Noroeste 32 Noroeste 0 973.9 1.5 60
2019-04-10 21:00:00 13.6 21 Noroeste 36 Oeste 0 972.8 0.4 55
2019-04-10 20:00:00 15.6 24 Oeste 42 Oeste 0 972.5 -0.2 46
2019-04-10 19:00:00 16 29 Oeste 43 Oeste 0 972.4 -0.9 41
2019-04-10 18:00:00 16 27 Oeste 40 Oeste 0 972.4 -1.3 47
2019-04-10 17:00:00 15.8 24 Oeste 42 Noroeste 0 972.7 -0.9 46
2019-04-10 16:00:00 14.8 28 Noroeste 48 Oeste 0 973.3 -0.9 49
2019-04-10 15:00:00 15.4 28 Oeste 45 Oeste 0 973.7 -0.6 46
2019-04-10 14:00:00 14.7 26 Oeste 43 Noroeste 0 973.6 -0.7 50
2019-04-10 13:00:00 13.9 21 Oeste 36 Oeste 0 974.2 -0.3 58
2019-04-10 12:00:00 12.9 24 Oeste 34 Oeste 0 974.3 0.1 63
2019-04-10 11:00:00 11.1 20 Oeste 35 Oeste 0 974.3 0.6 70
2019-04-10 10:00:00 10 17 Oeste 30 Oeste 0 974.5 0.8 78
2019-04-10 09:00:00 8.7 19 Oeste 29 Oeste 0 974.2 0.6 84
2019-04-10 08:00:00 8.2 17 Oeste 26 Oeste 0 973.7 -0.1 88
2019-04-10 07:00:00 8.5 11 Oeste 25 Oeste 0 973.7 -0.4 89
2019-04-10 06:00:00 8.5 14 Oeste 25 Oeste 0 973.6 -0.8 88
2019-04-10 05:00:00 8.5 13 Oeste 18 Oeste 0 973.8 -0.7 88
2019-04-10 04:00:00 8.2 9 Sudoeste 15 Sudoeste 0 974.1 -0.4 88
2019-04-10 03:00:00 8.4 5 Sudoeste 13 Sudoeste 0 974.4 0.1 85
2019-04-10 02:00:00 8.5 10 Oeste 16 Oeste 0 974.5 0.3 83
2019-04-10 01:00:00 8.6 14 Oeste 22 Oeste 0 974.5 1 80
2019-04-10 00:00:00 9.6 13 Oeste 21 Oeste 0 974.3 1.7 77
2019-04-09 23:00:00 10.8 10 Oeste 20 Oeste 0 974.2 2.1 73
2019-04-09 22:00:00 11.6 18 Oeste 35 Oeste 0 973.5 1.6 67
2019-04-09 21:00:00 12.5 19 Oeste 45 Oeste 0 972.6 0.5 62
2019-04-09 20:00:00 14 24 Oeste 41 Sudoeste 0 972.1 -0.3 59
2019-04-09 19:00:00 14.8 28 Sudoeste 41 Oeste 0 971.9 -0.3 65
2019-04-09 18:00:00 14.2 14 Oeste 46 Oeste 0 972.1 -0.4 69
2019-04-09 17:00:00 10.9 39 Oeste 60 Oeste 0.6 972.4 -0.2 77
2019-04-09 16:00:00 15.1 28 Sudoeste 54 Sudoeste 0.2 972.2 -0.7 60
2019-04-09 15:00:00 14.8 32 Sudoeste 56 Sudoeste 0 972.5 -0.7 67
2019-04-09 14:00:00 13.7 30 Oeste 60 Sudoeste 0 972.6 -0.7 56
2019-04-09 13:00:00 13.5 35 Sudoeste 49 Sudoeste 0 972.9 -0.3 67
2019-04-09 12:00:00 12.3 29 Sudoeste 48 Sudoeste 0 973.2 0 71
2019-04-09 11:00:00 11 31 Sudoeste 44 Oeste 0.2 973.3 0.6 81
2019-04-09 10:00:00 10 22 Sudoeste 32 Sudoeste 0 973.2 0.8 91
2019-04-09 09:00:00 9.2 18 Sudoeste 28 Sudoeste 0 973.2 0.7 92
2019-04-09 08:00:00 8.7 15 Sudoeste 28 Oeste 0 972.7 0.1 91
2019-04-09 07:00:00 8.7 17 Sudoeste 26 Sudoeste 1.2 972.4 -0.3 92
2019-04-09 06:00:00 8.5 12 Sudoeste 20 Sudoeste 0 972.5 -0.5 91
2019-04-09 05:00:00 8.2 12 Sudoeste 18 Sudoeste 0 972.6 -0.4 89
2019-04-09 04:00:00 8.1 8 Sudoeste 16 Sudoeste 0 972.7 -0.3 87
2019-04-09 03:00:00 8.2 6 Sudoeste 14 Sudoeste 0 973 0.1 84
2019-04-09 02:00:00 8.5 7 Sudoeste 10 Sudoeste 0 973 0.3 81
2019-04-09 01:00:00 8.7 5 Oeste 22 Sudoeste 0 973 1 77
2019-04-09 00:00:00 9.4 14 Oeste 26 Sudoeste 0 972.9 1.6 75
2019-04-08 23:00:00 10.3 16 Oeste 27 Oeste 0 972.7 2.2 74
2019-04-08 22:00:00 11.5 20 Oeste 30 Sudoeste 0 972 1.8 69
2019-04-08 21:00:00 11.9 20 Oeste 44 Oeste 0 971.3 1.2 68
2019-04-08 20:00:00 14.6 35 Oeste 50 Oeste 0 970.5 0.6 50
2019-04-08 19:00:00 15.6 32 Sudoeste 48 Sudoeste 0 970.2 -0.2 45
2019-04-08 18:00:00 17.1 25 Oeste 52 Oeste 0 970.1 -0.8 45
2019-04-08 17:00:00 16.4 31 Sudoeste 47 Sudoeste 0 969.9 -1.4 50
2019-04-08 16:00:00 16.3 33 Sudoeste 50 Sudoeste 0 970.4 -1.3 53
2019-04-08 15:00:00 15.4 28 Oeste 41 Oeste 0 970.9 -1 57
2019-04-08 14:00:00 14.8 27 Sudoeste 42 Sudoeste 0 971.3 -0.2 62
2019-04-08 13:00:00 14.1 18 Sudoeste 27 Sudoeste 0 971.7 0.4 73
2019-04-08 12:00:00 13.7 17 Sudoeste 26 Sudoeste 0 971.9 0.7 76
2019-04-08 11:00:00 11.9 14 Sudoeste 18 Sudoeste 0 971.5 0.9 91
2019-04-08 10:00:00 10.9 12 Sur 17 Sudoeste 0.2 971.3 1.2 93
2019-04-08 09:00:00 10.9 13 Sudoeste 38 Sudoeste 0.8 971.2 1.2 93
2019-04-08 08:00:00 10.8 24 Sudoeste 34 Sudoeste 0.2 970.6 0.4 92
2019-04-08 07:00:00 11.3 26 Sudoeste 37 Sudoeste 0.2 970.1 -0.6 92
2019-04-08 06:00:00 11.1 22 Sudoeste 31 Sudoeste 1.4 970 -0.9 93
2019-04-08 05:00:00 11.1 16 Sudoeste 27 Sudoeste 1 970.2 -0.8 92
2019-04-08 04:00:00 11.3 20 Sudoeste 27 Sudoeste 0.6 970.7 -0.7 92
2019-04-08 03:00:00 11.5 20 Sudoeste 30 Sudoeste 0 970.9 -0.4 91
2019-04-08 02:00:00 11.6 21 Sudoeste 35 Sudoeste 0 971 0 91
2019-04-08 01:00:00 11.8 22 Sudoeste 32 Sudoeste 0 971.4 0.6 92
2019-04-08 00:00:00 11.9 25 Sudoeste 45 Sudoeste 1.4 971.3 0.9 91
2019-04-07 23:00:00 12.3 10 Sudoeste 19 Sudoeste 0 971 0.9 91
2019-04-07 22:00:00 12.3 13 Sudoeste 28 Sudoeste 0 970.8 1.3 90
2019-04-07 21:00:00 13.1 22 Sudoeste 36 Sudoeste 0 970.4 1.3 90
2019-04-07 20:00:00 13.3 21 Sudoeste 34 Sudoeste 0.8 970.1 0.9 90
2019-04-07 19:00:00 13.1 18 Sudoeste 26 Sudoeste 1.2 969.5 -0.2 89
2019-04-07 18:00:00 13.6 10 Sudoeste 27 Sudoeste 0 969.1 -1.1 85
2019-04-07 17:00:00 14.1 16 Sudoeste 26 Sudoeste 0 969.2 -1.2 79
2019-04-07 16:00:00 12.8 15 Sudoeste 21 Sudoeste 0 969.7 -0.9 84
2019-04-07 15:00:00 11.4 12 Sudoeste 23 Sudoeste 0.2 970.2 0.3 89
2019-04-07 14:00:00 11.1 17 Sudoeste 29 Sudoeste 0 970.4 0.7 86
2019-04-07 13:00:00 10.9 24 Sudoeste 38 Sudoeste 0.2 970.6 1.2 82
2019-04-07 12:00:00 12.2 23 Sudoeste 32 Sudoeste 0 969.9 0.8 73
2019-04-07 11:00:00 11.1 21 Sudoeste 28 Sudoeste 0 969.7 1.2 81
2019-04-07 10:00:00 9.1 13 Sudoeste 19 Sudoeste 0 969.4 1.4 91
2019-04-07 09:00:00 8.4 11 Sudoeste 18 Sudoeste 0.2 969.1 1.5 92
2019-04-07 08:00:00 8 16 Sudoeste 21 Sudoeste 0.4 968.5 0.9 91
2019-04-07 07:00:00 8.2 17 Sudoeste 30 Sudoeste 0.2 968 0.2 91
2019-04-07 06:00:00 8.2 22 Sudoeste 33 Sudoeste 0 967.6 -0.1 91
2019-04-07 05:00:00 8.2 20 Sudoeste 29 Sudoeste 0 967.6 -0.1 91
2019-04-07 04:00:00 8.2 21 Sudoeste 34 Sudoeste 0 967.8 0.2 91
2019-04-07 03:00:00 8 23 Sudoeste 34 Sudoeste 0 967.7 0.3 90
2019-04-07 02:00:00 7.9 22 Sudoeste 31 Sudoeste 0 967.7 0.7 91
2019-04-07 01:00:00 7.9 18 Sudoeste 24 Sudoeste 0.6 967.6 1.3 92
2019-04-07 00:00:00 7.8 13 Sudoeste 36 Sudoeste 0 967.4 1.7 88
2019-04-06 23:00:00 8.3 26 Sudoeste 42 Sudoeste 0.2 967 1.9 85
2019-04-06 22:00:00 8.5 27 Sudoeste 40 Sudoeste 0 966.3 1.8 82
2019-04-06 21:00:00 9.2 31 Sudoeste 49 Sudoeste 0 965.7 1.4 77
2019-04-06 20:00:00 9 26 Oeste 44 Oeste 1.2 965.1 1.1 81
2019-04-06 19:00:00 10.2 5 Sudoeste 21 Oeste 0 964.5 0.7 78
2019-04-06 18:00:00 9.5 15 Oeste 40 Noroeste 0.6 964.3 0.9 78
2019-04-06 17:00:00 10 27 Noroeste 54 Sudoeste 0 964 0.5 66
2019-04-06 16:00:00 10.7 27 Sudoeste 81 Oeste 0.8 963.8 -0.2 76
2019-04-06 15:00:00 12.8 32 Oeste 50 Sudoeste 0 963.4 -1 58
2019-04-06 14:00:00 11.1 27 Oeste 50 Sudoeste 0 963.5 -0.8 70
2019-04-06 13:00:00 11.4 32 Sudoeste 50 Sudoeste 0 964 0.1 68
2019-04-06 12:00:00 8.9 31 Sudoeste 49 Sudoeste 0 964.4 0.8 81
2019-04-06 11:00:00 7.7 30 Sudoeste 42 Sudoeste 0.2 964.3 1 90
2019-04-06 10:00:00 7.2 26 Sudoeste 37 Sudoeste 1 963.9 0.8 90
2019-04-06 09:00:00 7 19 Sudoeste 31 Sudoeste 0 963.6 0.7 92
2019-04-06 08:00:00 6.6 22 Sudoeste 34 Sudoeste 0 963.3 0.4 92
2019-04-06 07:00:00 6.6 17 Sudoeste 35 Sudoeste 0.2 963.1 0.1 92
2019-04-06 06:00:00 6.8 24 Sudoeste 33 Sudoeste 0.2 962.9 -0.1 91
2019-04-06 05:00:00 6.4 16 Sudoeste 25 Sudoeste 0 962.9 -0.4 92
2019-04-06 04:00:00 6.3 19 Sudoeste 29 Oeste 0 963 -0.4 92
2019-04-06 03:00:00 6.1 19 Sudoeste 27 Sudoeste 0 963 0 91
2019-04-06 02:00:00 6.5 20 Sudoeste 29 Sudoeste 0 963.3 0.4 90
2019-04-06 01:00:00 6.8 15 Sudoeste 21 Sudoeste 0 963.4 1.4 90
2019-04-06 00:00:00 7 11 Sudoeste 41 Oeste 2.2 963 2 89
2019-04-05 23:00:00 7.6 7 Oeste 21 Sudoeste 1.6 962.9 2.6 88
2019-04-05 22:00:00 7.4 14 Sudoeste 30 Oeste 0 962 2.4 84
2019-04-05 21:00:00 7.6 21 Sudoeste 39 Sudoeste 0 961 2.1 83
2019-04-05 20:00:00 7.8 23 Sudoeste 57 Sudoeste 0.8 960.3 2.2 85
2019-04-05 19:00:00 6.9 32 Oeste 69 Oeste 1.8 959.6 1.1 84
2019-04-05 18:00:00 8.6 34 Sudoeste 62 Sudoeste 0.2 958.9 0.1 81
2019-04-05 17:00:00 11.8 32 Sudoeste 53 Sudoeste 0 958.1 -1.1 53
2019-04-05 16:00:00 11.5 33 Oeste 57 Sudoeste 0 958.5 -0.9 51
2019-04-05 15:00:00 11.6 36 Sudoeste 53 Sudoeste 0 958.8 -1.1 55
2019-04-05 14:00:00 9.3 31 Oeste 50 Oeste 0 959.2 0.8 59
2019-04-05 13:00:00 8.4 28 Oeste 40 Oeste 0 959.4 1.8 71
2019-04-05 12:00:00 6.5 27 Oeste 40 Oeste 0 959.9 3.3 83
2019-04-05 11:00:00 7.1 13 Oeste 44 Oeste 0.2 958.4 1.9 85
2019-04-05 10:00:00 6.3 30 Oeste 62 Sudoeste 0.8 957.6 0.9 90
2019-04-05 09:00:00 7.7 17 Sudoeste 26 Sudoeste 0.4 956.6 -0.4 92
2019-04-05 08:00:00 7.4 9 Sudoeste 15 Sudoeste 0.4 956.5 -1.1 92
2019-04-05 07:00:00 7.5 9 Sudoeste 16 Sudoeste 0.2 956.7 -1.3 92
2019-04-05 06:00:00 7.8 10 Sudoeste 30 Sudoeste 0.6 957 -1.7 92
2019-04-05 05:00:00 8 28 Sudoeste 37 Sudoeste 0.8 957.6 -2 92
2019-04-05 04:00:00 7.9 19 Sudoeste 28 Sudoeste 3.2 958 -2.1 92
2019-04-05 03:00:00 7.4 13 Sudoeste 21 Sudoeste 0.4 958.7 -1.4 89
2019-04-05 02:00:00 7.1 10 Sudoeste 19 Sudoeste 0 959.6 -0.5 83
2019-04-05 01:00:00 7.3 13 Sudoeste 41 Sudoeste 0.2 960.1 0.7 75
2019-04-05 00:00:00 9.5 27 Sudoeste 41 Sudoeste 0 960.1 1 64
2019-04-04 23:00:00 9.9 30 Sudoeste 44 Oeste 0 960.1 1.1 59
2019-04-04 22:00:00 11 31 Oeste 48 Oeste 0 959.4 0.1 54
2019-04-04 21:00:00 12.2 23 Oeste 43 Oeste 0 959.1 -0.5 43
2019-04-04 20:00:00 14.1 31 Oeste 40 Sudoeste 0 959 -0.9 34
2019-04-04 19:00:00 15.6 22 Sudoeste 48 Oeste 0 959.3 -1.3 29
2019-04-04 18:00:00 15.8 26 Sudoeste 42 Oeste 0 959.6 -1.9 26
2019-04-04 17:00:00 15.8 20 Sudoeste 35 Oeste 0 959.9 -2.1 27
2019-04-04 16:00:00 15 20 Oeste 36 Sudoeste 0 960.6 -1.8 31
2019-04-04 15:00:00 14.8 18 Sudoeste 30 Sudoeste 0 961.5 -1 31
2019-04-04 14:00:00 13.9 9 Oeste 23 Sudoeste 0 962 -0.3 28
2019-04-04 13:00:00 12.8 14 Norte 27 Norte 0 962.4 0 28
2019-04-04 12:00:00 12 15 Norte 31 Norte 0 962.5 0 29
2019-04-04 11:00:00 10 19 Norte 36 Norte 0 962.3 0.4 40
2019-04-04 10:00:00 8.1 17 Norte 23 Noroeste 0 962.4 0.7 47
2019-04-04 09:00:00 6.5 4 Sudeste 9 Nordeste 0 962.5 1 56
2019-04-04 08:00:00 5.3 4 Sur 14 Norte 0 961.9 0.4 57
2019-04-04 07:00:00 6.4 6 Norte 15 Oeste 0 961.7 -0.1 52
2019-04-04 06:00:00 6.6 4 Noroeste 21 Nordeste 0 961.5 -0.5 54
2019-04-04 05:00:00 6.7 4 Sudoeste 30 Nordeste 0 961.5 -0.9 61
2019-04-04 04:00:00 7.6 9 Nordeste 24 Nordeste 0 961.8 -0.9 61
2019-04-04 03:00:00 7.5 10 Sudoeste 20 Sur 0 962 -0.6 67
2019-04-04 02:00:00 8.1 5 Sur 30 Noroeste 0 962.4 -0.4 66
2019-04-04 01:00:00 9.4 15 Noroeste 37 Noroeste 0 962.7 0.1 60
2019-04-04 00:00:00 9.8 25 Noroeste 39 Noroeste 0 962.6 0.5 59
2019-04-03 23:00:00 10.3 23 Oeste 34 Oeste 0 962.8 0.9 58
2019-04-03 22:00:00 11.2 18 Oeste 22 Oeste 0 962.6 0.4 55
2019-04-03 21:00:00 13.1 17 Oeste 30 Oeste 0 962.1 -0.4 48
2019-04-03 20:00:00 15.5 20 Oeste 34 Oeste 0 961.9 -1.3 38
2019-04-03 19:00:00 16.1 21 Oeste 34 Oeste 0 962.2 -1.6 42
2019-04-03 18:00:00 16.7 18 Oeste 34 Noroeste 0 962.5 -2 45
2019-04-03 17:00:00 16.1 21 Oeste 34 Oeste 0 963.2 -1.9 45
2019-04-03 16:00:00 16.3 21 Sudoeste 37 Sudoeste 0 963.8 -1.9 49
2019-04-03 15:00:00 15.5 25 Sudoeste 43 Sudoeste 0 964.5 -1.8 52
2019-04-03 14:00:00 14.5 21 Sudoeste 32 Sudoeste 0 965.1 -1.6 56
2019-04-03 13:00:00 13.5 18 Sudoeste 31 Oeste 0 965.7 -1.3 60
2019-04-03 12:00:00 11.9 20 Sudoeste 28 Sudoeste 0 966.3 -0.8 68
2019-04-03 11:00:00 9.5 15 Sudoeste 23 Sudoeste 0 966.7 -0.7 81
2019-04-03 10:00:00 7.7 16 Oeste 23 Sudoeste 0 967 -0.6 92
2019-04-03 09:00:00 7.6 11 Sudoeste 16 Sudoeste 0 967.1 -1 93
2019-04-03 08:00:00 7 5 Oeste 12 Sudoeste 0 967.4 -1.1 92
2019-04-03 07:00:00 7.9 6 Oeste 10 Sudoeste 0 967.6 -1.5 91
2019-04-03 06:00:00 8.1 10 Oeste 14 Oeste 0 968.1 -1.5 89
2019-04-03 05:00:00 9 9 Oeste 13 Oeste 0 968.5 -1.7 87
2019-04-03 04:00:00 9.4 8 Sudoeste 10 Sudoeste 0 969.1 -1.5 86
2019-04-03 03:00:00 10.3 0 Calma 5 Sur 0 969.6 -1 83
2019-04-03 02:00:00 11.1 0 Calma 7 Nordeste 0 970.2 -0.3 79
2019-04-03 01:00:00 12 4 Sur 8 Oeste 0 970.6 0.4 74
2019-04-03 00:00:00 12.9 6 Sudoeste 8 Sudoeste 0 970.6 0.6 70
2019-04-02 23:00:00 14 6 Oeste 16 Oeste 0 970.5 0.4 64
2019-04-02 22:00:00 14.4 12 Oeste 16 Oeste 0 970.2 0.3 63
2019-04-02 21:00:00 16 13 Oeste 22 Oeste 0 970 -0.1 58
2019-04-02 20:00:00 18.6 13 Oeste 26 Oeste 0 970.1 -0.6 52
2019-04-02 19:00:00 19.4 21 Oeste 30 Oeste 0 969.9 -1.3 43
2019-04-02 18:00:00 20.2 8 Sudoeste 22 Oeste 0 970.1 -1.6 40
2019-04-02 17:00:00 19.7 6 Sudoeste 13 Sudoeste 0 970.7 -1.6 47
2019-04-02 16:00:00 19.8 5 Noroeste 15 Sudoeste 0 971.2 -1.7 48
2019-04-02 15:00:00 18.8 5 Sur 15 Sudeste 0 971.7 -1.6 54
2019-04-02 14:00:00 17.2 3 Sudoeste 13 Sudoeste 0 972.3 -0.7 60
2019-04-02 13:00:00 14.4 4 Este 9 Sur 0 972.9 0 90
2019-04-02 12:00:00 11.4 4 Este 18 Este 0 973.3 0.8 94
2019-04-02 11:00:00 9.4 13 Este 17 Sudeste 0 973 1 94
2019-04-02 10:00:00 8.8 9 Este 17 Este 0 972.9 1.1 94
2019-04-02 09:00:00 8.6 13 Este 15 Este 0 972.5 0.5 94
2019-04-02 08:00:00 8.8 6 Este 10 Este 0 972 -0.1 94
2019-04-02 07:00:00 9.5 4 Este 9 Este 0 971.8 -0.3 94
2019-04-02 06:00:00 9.6 4 Norte 8 Norte 0 972 0 94
2019-04-02 05:00:00 10 4 Este 10 Este 0 972.1 -0.1 94
2019-04-02 04:00:00 10.2 8 Este 12 Este 0 972.1 0.1 94
2019-04-02 03:00:00 10.4 6 Este 9 Este 0 972 0.2 93
2019-04-02 02:00:00 10.7 5 Norte 7 Sudeste 0 972.2 0.4 92
2019-04-02 01:00:00 11.3 2 Este 6 Nordeste 0 972 0.9 92
2019-04-02 00:00:00 11.3 4 Este 8 Sudeste 0 971.8 1.2 90
2019-04-01 23:00:00 11.7 4 Sudoeste 10 Norte 0 971.8 1.7 88
2019-04-01 22:00:00 11.8 8 Nordeste 10 Nordeste 0 971.1 1.3 90
2019-04-01 21:00:00 12 8 Sudoeste 11 Sudoeste 0.2 970.6 2.3 88
2019-04-01 20:00:00 12.2 8 Norte 15 Norte 3.2 970.1 2 84
2019-04-01 19:00:00 12.4 8 Sudeste 37 Oeste 4 969.8 1.8 85
2019-04-01 18:00:00 15.9 18 Noroeste 30 Noroeste 0 968.3 -0.1 62
2019-04-01 17:00:00 16.1 15 Sudeste 39 Sudeste 0 968.1 -0.8 62
2019-04-01 16:00:00 18.7 9 Sudoeste 17 Sur 0 968 -1.5 49
2019-04-01 15:00:00 19.7 7 Sudoeste 14 Sur 0 968.4 -1.1 49
2019-04-01 14:00:00 18.2 5 Sudeste 14 Nordeste 0 968.9 -0.2 48
2019-04-01 13:00:00 17.2 6 Este 15 Nordeste 0 969.5 0.9 56
2019-04-01 12:00:00 15.9 3 Sudeste 10 Oeste 0 969.5 1.3 68
2019-04-01 11:00:00 14.5 4 Este 11 Este 0 969.1 1.3 73
2019-04-01 10:00:00 12.1 5 Este 11 Sudeste 0 968.6 1.1 89
2019-04-01 09:00:00 10.6 3 Este 9 Este 0 968.2 1.2 91
2019-04-01 08:00:00 10.8 7 Este 11 Nordeste 0 967.8 0.6 89
2019-04-01 07:00:00 10.7 4 Este 13 Este 0 967.5 0 89
2019-04-01 06:00:00 10.6 12 Nordeste 14 Nordeste 0 967 -0.6 92
2019-04-01 05:00:00 10.4 5 Este 12 Este 0 967.2 -0.3 92
2019-04-01 04:00:00 11.1 2 Noroeste 13 Este 0 967.5 0 91
2019-04-01 03:00:00 11.7 8 Este 15 Nordeste 0 967.6 0.2 85
2019-04-01 02:00:00 11.3 2 Noroeste 10 Este 0.2 967.5 -0.1 91
2019-04-01 01:00:00 11.4 5 Nordeste 8 Nordeste 0 967.5 0 89
2019-04-01 00:00:00 11.2 4 Oeste 5 Oeste 0 967.4 0.5 90
2019-03-31 23:00:00 11.1 2 Sudeste 7 Sudoeste 0 967.6 0.6 90
2019-03-31 22:00:00 11.1 3 Sur 9 Sudeste 0 967.5 1.3 90
2019-03-31 21:00:00 11.3 5 Sudeste 27 Norte 1.4 966.9 1.4 87
2019-03-31 20:00:00 11.8 3 Este 22 Nordeste 11.2 967 1.5 81
2019-03-31 19:00:00 11.8 17 Este 43 Nordeste 19.4 966.2 0.2 70
2019-03-31 18:00:00 18.6 9 Noroeste 20 Sudoeste 0 965.5 -1.1 57
2019-03-31 17:00:00 18.9 13 Sudoeste 27 Sur 0 965.5 -1.8 59
2019-03-31 16:00:00 18.3 14 Oeste 23 Oeste 0 966 -2.2 54
2019-03-31 15:00:00 19.3 6 Noroeste 22 Oeste 0 966.6 -2 46
2019-03-31 14:00:00 18.9 7 Oeste 14 Oeste 0 967.3 -1.2 53
2019-03-31 13:00:00 17.2 4 Este 15 Este 0 968.2 -0.3 59
2019-03-31 12:00:00 15.7 5 Este 12 Nordeste 0 968.6 0.6 69
2019-03-31 11:00:00 13.4 3 Noroeste 7 Este 0 968.5 0.9 86
2019-03-31 10:00:00 10.4 3 Sudoeste 15 Sudoeste 0 968.5 1 93
2019-03-31 09:00:00 8.6 7 Sur 18 Sudoeste 0 968 0.3 93
2019-03-31 08:00:00 9.2 9 Nordeste 13 Nordeste 0 967.6 -0.8 93
2019-03-31 07:00:00 9 3 Oeste 6 Sudoeste 0 967.5 -1.8 93
2019-03-31 06:00:00 8.9 5 Nordeste 10 Este 0 967.7 -1.7 93
2019-03-31 05:00:00 9.4 6 Sudoeste 10 Sudoeste 0 968.4 -1 90
2019-03-31 03:00:00 11.2 8 Este 16 Nordeste 0 969.4 -1.4 80
2019-03-31 01:00:00 11.2 9 Nordeste 12 Nordeste 0 969.4 -0.7 81
2019-03-31 00:00:00 11.6 5 Este 15 Sudoeste 0 970.1 -0.9 86
2019-03-30 23:00:00 12.1 12 Sudoeste 35 Noroeste 0.8 970.8 1 83
2019-03-30 22:00:00 12.5 33 Noroeste 42 Noroeste 4.8 970.1 1.1 76
2019-03-30 21:00:00 12.9 11 Sudoeste 39 Sudoeste 0.6 971 2.6 75
2019-03-30 20:00:00 14.6 8 Sudoeste 13 Sudoeste 0.2 969.8 1.1 73
2019-03-30 19:00:00 15 11 Nordeste 37 Sudoeste 0.8 969 -0.1 62
2019-03-30 18:00:00 20.9 12 Este 19 Este 0 968.4 -1.5 34
2019-03-30 17:00:00 23 15 Este 30 Este 0 968.7 -2.2 30
2019-03-30 16:00:00 23.5 8 Este 31 Este 0 969.1 -2.6 29
2019-03-30 15:00:00 22.4 15 Nordeste 30 Nordeste 0 969.9 -2.7 31
2019-03-30 14:00:00 20.9 21 Este 35 Nordeste 0 970.9 -2.3 35
2019-03-30 13:00:00 20.2 18 Este 30 Este 0 971.7 -1.4 40
2019-03-30 12:00:00 18.5 16 Este 28 Este 0 972.6 -0.8 45
2019-03-30 11:00:00 16.5 21 Este 31 Nordeste 0 973.2 -0.1 53
2019-03-30 10:00:00 14 24 Nordeste 31 Nordeste 0 973.1 -0.2 60
2019-03-30 09:00:00 12.3 20 Nordeste 28 Este 0 973.4 0 67
2019-03-30 08:00:00 11.2 19 Nordeste 25 Nordeste 0 973.3 -0.3 71
2019-03-30 07:00:00 10.7 21 Nordeste 29 Nordeste 0 973.3 -0.6 71
2019-03-30 06:00:00 10.6 13 Nordeste 21 Nordeste 0 973.4 -0.7 70
2019-03-30 05:00:00 10.7 8 Nordeste 12 Nordeste 0 973.6 -0.9 67
2019-03-30 04:00:00 11.1 7 Este 11 Este 0 973.9 -0.8 62
2019-03-30 03:00:00 11.1 6 Este 12 Nordeste 0 974.1 -0.8 61
2019-03-30 02:00:00 10.5 5 Sudeste 13 Este 0 974.5 -0.5 62
2019-03-30 01:00:00 12.4 6 Nordeste 9 Nordeste 0 974.7 -0.1 51
2019-03-30 00:00:00 13.1 7 Oeste 10 Oeste 0 974.9 0.6 49
2019-03-29 23:00:00 13.2 4 Sudeste 12 Sudoeste 0 975 1.1 45
2019-03-29 22:00:00 14.5 7 Este 12 Sudeste 0 974.8 1.1 41
2019-03-29 21:00:00 16.2 4 Sudeste 13 Sur 0 974.3 0.6 33
2019-03-29 20:00:00 18.6 3 Norte 4 Norte 0 973.9 0 25
2019-03-29 19:00:00 20.9 2 Este 13 Nordeste 0 973.7 -0.7 22
2019-03-29 18:00:00 22.2 6 Este 14 Sudoeste 0 973.7 -1.4 22
2019-03-29 17:00:00 22.6 4 Sudeste 16 Nordeste 0 973.9 -1.8 19
2019-03-29 16:00:00 21.4 11 Este 18 Este 0 974.4 -1.8 20
2019-03-29 15:00:00 22.9 4 Noroeste 19 Este 0 975.1 -1.6 22
2019-03-29 14:00:00 21.3 8 Norte 16 Norte 0 975.7 -1.4 22
2019-03-29 13:00:00 21.2 3 Nordeste 21 Nordeste 0 976.2 -1.1 25
2019-03-29 12:00:00 18.8 6 Nordeste 21 Nordeste 0 976.7 -0.3 28
2019-03-29 11:00:00 16.3 16 Nordeste 27 Nordeste 0 977.1 0 33
2019-03-29 10:00:00 13 22 Nordeste 31 Este 0 977.3 0.6 43
2019-03-29 09:00:00 9.3 12 Este 18 Este 0 977 0.4 60
2019-03-29 08:00:00 5.3 13 Este 24 Nordeste 0 977.1 0.6 71
2019-03-29 07:00:00 6.7 14 Nordeste 22 Nordeste 0 976.7 -0.1 60
2019-03-29 06:00:00 7 13 Nordeste 17 Nordeste 0 976.6 -0.4 59
2019-03-29 05:00:00 7.1 8 Este 17 Nordeste 0 976.5 -0.5 56
2019-03-29 04:00:00 7.3 8 Nordeste 16 Nordeste 0 976.8 -0.3 53
2019-03-29 03:00:00 7 12 Nordeste 21 Este 0 977 -0.3 53
2019-03-29 02:00:00 8 15 Este 20 Nordeste 0 977 -0.4 53
2019-03-29 01:00:00 9.2 10 Nordeste 16 Nordeste 0 977.1 -0.2 48
2019-03-29 00:00:00 10 4 Sur 10 Nordeste 0 977.3 0.2 48
2019-03-28 23:00:00 12.9 8 Nordeste 10 Nordeste 0 977.4 0.6 36
2019-03-28 22:00:00 12.8 6 Este 10 Este 0 977.3 0.8 41
2019-03-28 21:00:00 14.5 5 Nordeste 9 Nordeste 0 977.1 1 33
2019-03-28 20:00:00 15.6 5 Este 24 Este 0 976.8 0.6 30
2019-03-28 19:00:00 17.7 19 Este 35 Este 0 976.5 0.2 26
2019-03-28 18:00:00 19.3 21 Este 39 Este 0 976.1 -0.5 22
2019-03-28 17:00:00 19.9 28 Este 41 Este 0 976.2 -1.3 21
2019-03-28 16:00:00 20.8 28 Este 42 Este 0 976.3 -2 19
2019-03-28 15:00:00 20 30 Nordeste 49 Nordeste 0 976.6 -2.5 14
2019-03-28 14:00:00 19.8 28 Este 49 Este 0 977.5 -2 23
2019-03-28 13:00:00 18.6 26 Este 42 Este 0 978.3 -1.2 31
2019-03-28 12:00:00 17.3 29 Este 40 Este 0 979.1 -0.5 36
2019-03-28 11:00:00 15 28 Nordeste 40 Nordeste 0 979.5 0.4 51
2019-03-28 10:00:00 12.7 26 Nordeste 32 Nordeste 0 979.5 0.7 59
2019-03-28 09:00:00 8.7 13 Este 21 Este 0 979.6 1.2 62
2019-03-28 08:00:00 5.6 14 Este 20 Este 0 979.1 0.8 70
2019-03-28 07:00:00 2.9 10 Este 19 Este 0 978.8 0.4 75
2019-03-28 06:00:00 3.5 9 Este 18 Este 0 978.4 -0.1 72
2019-03-28 05:00:00 4.2 13 Este 17 Este 0 978.3 -0.2 68
2019-03-28 04:00:00 5.2 6 Sudoeste 9 Sudoeste 0 978.4 -0.1 66
2019-03-28 03:00:00 6.8 5 Nordeste 11 Este 0 978.5 0.5 61
2019-03-28 02:00:00 8.8 9 Oeste 17 Oeste 0 978.5 1 57
2019-03-28 01:00:00 10.4 14 Oeste 18 Oeste 0 978.5 1.2 52
2019-03-28 00:00:00 9.9 12 Sudoeste 18 Sudoeste 0 978 1.6 36
2019-03-27 23:00:00 13.3 15 Nordeste 19 Nordeste 0 977.5 2 27
2019-03-27 22:00:00 13.9 10 Este 19 Nordeste 0 977.3 2.4 25
2019-03-27 21:00:00 16.5 23 Nordeste 41 Nordeste 0 976.4 2.2 20
2019-03-27 20:00:00 17.8 26 Nordeste 36 Nordeste 0 975.5 1.2 18
2019-03-27 19:00:00 19.6 27 Nordeste 45 Este 0 974.9 0.3 14
2019-03-27 18:00:00 20.7 33 Nordeste 46 Este 0 974.2 -0.3 12
2019-03-27 17:00:00 21.3 31 Este 49 Este 0 974.3 -0.8 14
2019-03-27 16:00:00 21 39 Este 61 Este 0 974.6 -1 14
2019-03-27 15:00:00 21 40 Este 60 Nordeste 0 974.5 -1.6 16
2019-03-27 14:00:00 20.5 36 Este 56 Nordeste 0 975.1 -0.9 17
2019-03-27 13:00:00 18.6 32 Nordeste 49 Nordeste 0 975.6 -0.1 20
2019-03-27 12:00:00 17.1 30 Nordeste 48 Nordeste 0 976.1 0.9 31
2019-03-27 11:00:00 15.1 35 Nordeste 49 Este 0 976 1.1 43
2019-03-27 10:00:00 14.3 23 Nordeste 36 Nordeste 0 975.7 1.6 59
2019-03-27 09:00:00 11.8 24 Nordeste 32 Nordeste 0 975.2 1.9 67
2019-03-27 08:00:00 9.8 18 Este 26 Este 0 974.9 2 78
2019-03-27 07:00:00 8.6 15 Este 22 Este 0 974.1 1.7 77
2019-03-27 06:00:00 8.8 15 Este 20 Este 0 973.3 0.9 74
2019-03-27 05:00:00 9.9 8 Este 19 Nordeste 0 972.9 1.2 69
2019-03-27 04:00:00 11.6 10 Nordeste 15 Nordeste 0 972.4 1 61
2019-03-27 03:00:00 10 4 Oeste 21 Este 0 972.4 1.7 73
2019-03-27 02:00:00 11.2 9 Este 18 Este 0 971.7 1.3 68
2019-03-27 01:00:00 11.1 15 Este 21 Este 0 971.4 1.5 71
2019-03-27 00:00:00 13.4 4 Oeste 10 Este 0 970.7 1.6 63
2019-03-26 23:00:00 14.2 6 Nordeste 12 Sudoeste 0 970.4 1.8 60
2019-03-26 22:00:00 16.6 8 Sudoeste 15 Oeste 0 969.9 1.8 53
2019-03-26 21:00:00 17.5 10 Oeste 18 Sudoeste 0 969.1 1.7 45
2019-03-26 20:00:00 20.6 6 Sudoeste 12 Sur 0 968.6 1.6 31
2019-03-26 19:00:00 22 8 Sudeste 26 Este 0 968.1 1 28
2019-03-26 18:00:00 23.6 13 Sudeste 32 Este 0 967.4 0.2 24
2019-03-26 17:00:00 24.3 20 Nordeste 34 Este 0 967 -0.8 21
2019-03-26 16:00:00 24 24 Nordeste 39 Nordeste 0 967.1 -1.1 21
2019-03-26 15:00:00 23.6 28 Nordeste 43 Nordeste 0 967.2 -1.5 21
2019-03-26 14:00:00 22.9 33 Este 44 Este 0 967.8 -1.2 20
2019-03-26 13:00:00 22 33 Este 49 Nordeste 0 968.2 -0.5 22
2019-03-26 12:00:00 19.3 37 Nordeste 54 Nordeste 0 968.7 0.2 27
2019-03-26 11:00:00 16.8 31 Nordeste 40 Nordeste 0 969 0.6 32
2019-03-26 10:00:00 13.4 33 Este 48 Este 0 968.7 0.4 40
2019-03-26 09:00:00 11.8 32 Este 39 Este 0 968.5 0 43
2019-03-26 08:00:00 11 33 Nordeste 41 Este 0 968.4 -0.1 47
2019-03-26 07:00:00 10.6 26 Este 32 Nordeste 0 968.3 -0.4 52
2019-03-26 06:00:00 9.9 21 Este 28 Este 0 968.5 -0.7 55
2019-03-26 05:00:00 9.4 10 Este 20 Nordeste 0 968.5 -1 52
2019-03-26 04:00:00 11.5 11 Este 20 Nordeste 0 968.7 -0.8 40
2019-03-26 03:00:00 12.9 13 Nordeste 26 Nordeste 0 969.2 -0.7 30
2019-03-26 02:00:00 13.5 18 Este 32 Nordeste 0 969.5 -0.6 30
2019-03-26 01:00:00 13.7 18 Nordeste 23 Nordeste 0 969.5 -0.5 29
2019-03-26 00:00:00 14.9 18 Nordeste 20 Nordeste 0 969.9 0.3 27
2019-03-25 23:00:00 15.7 11 Nordeste 15 Nordeste 0 970.1 0.8 25
2019-03-25 22:00:00 16.7 12 Este 29 Nordeste 0 970 0.8 24
2019-03-25 21:00:00 19.6 26 Nordeste 41 Nordeste 0 969.6 0.4 18
2019-03-25 20:00:00 20.2 28 Nordeste 41 Nordeste 0 969.3 -0.2 18
2019-03-25 19:00:00 21.3 28 Nordeste 46 Nordeste 0 969.2 -0.9 19
2019-03-25 18:00:00 22.1 31 Nordeste 51 Nordeste 0 969.2 -1.8 19
2019-03-25 17:00:00 22.3 35 Nordeste 54 Nordeste 0 969.5 -2.6 21
2019-03-25 16:00:00 22.3 36 Nordeste 52 Este 0 970.1 -2.9 24
2019-03-25 15:00:00 22.3 32 Nordeste 49 Nordeste 0 971 -3 24
2019-03-25 14:00:00 21.3 32 Nordeste 45 Nordeste 0 972.1 -2.5 26
2019-03-25 13:00:00 20.5 28 Nordeste 44 Nordeste 0 973 -2 28
2019-03-25 12:00:00 19.1 33 Nordeste 46 Nordeste 0 974 -0.9 35
2019-03-25 11:00:00 16.5 21 Nordeste 30 Este 0 974.6 -0.2 54
2019-03-25 10:00:00 12.5 7 Este 16 Este 0 975 0.4 71
2019-03-25 09:00:00 8.7 6 Este 14 Este 0 974.9 0.3 81
2019-03-25 08:00:00 6 11 Este 14 Este 0 974.8 0 91
2019-03-25 07:00:00 5.9 8 Sudeste 9 Sudeste 0 974.6 -0.4 88
2019-03-25 06:00:00 6.4 2 Este 15 Este 0 974.6 -0.4 90
2019-03-25 05:00:00 6.9 5 Este 10 Este 0 974.8 -0.2 89
2019-03-25 04:00:00 7.7 3 Sudoeste 7 Sudeste 0 975 -0.5 84
2019-03-25 03:00:00 8.1 4 Sudoeste 9 Sudeste 0 975 -0.6 84
2019-03-25 02:00:00 9.3 3 Sudoeste 6 Sudoeste 0 975 -0.9 80
2019-03-25 01:00:00 11.7 3 Sudeste 11 Nordeste 0 975.5 -0.4 67
2019-03-25 00:00:00 14.3 5 Este 10 Nordeste 0 975.6 0.2 56
2019-03-24 23:00:00 14.5 5 Nordeste 9 Este 0 975.9 1.3 54
2019-03-24 22:00:00 15.7 6 Nordeste 12 Este 0 975.9 1.9 50
2019-03-24 21:00:00 16.1 10 Este 18 Nordeste 0 975.4 1.7 49
2019-03-24 20:00:00 17.7 15 Nordeste 21 Nordeste 0 974.6 1.2 42
2019-03-24 19:00:00 19 13 Sudeste 28 Sudeste 0 974 0.2 38
2019-03-24 18:00:00 20.4 22 Este 39 Sudeste 0 973.7 -0.3 33
2019-03-24 17:00:00 21.1 26 Este 46 Este 0 973.4 -1.2 31
2019-03-24 16:00:00 20.6 27 Este 45 Sudeste 0 973.8 -1.2 32
2019-03-24 15:00:00 20.1 28 Este 52 Este 0 974 -1.6 33
2019-03-24 14:00:00 19.5 23 Este 48 Este 0 974.6 -1.4 39
2019-03-24 13:00:00 18.5 24 Nordeste 40 Nordeste 0 975 -0.9 40
2019-03-24 12:00:00 17.4 30 Este 44 Nordeste 0 975.6 0 43
2019-03-24 11:00:00 15.5 23 Nordeste 36 Este 0 976 0.5 50
2019-03-24 10:00:00 12.8 29 Nordeste 40 Nordeste 0 975.9 0.8 59
2019-03-24 09:00:00 11 28 Nordeste 38 Nordeste 0 975.6 0.5 63
2019-03-24 08:00:00 9.5 23 Nordeste 33 Nordeste 0 975.5 0.8 68
2019-03-24 07:00:00 8.3 16 Nordeste 23 Este 0 975.1 0.2 73
2019-03-24 06:00:00 8.5 15 Este 22 Nordeste 0 975.1 -0.2 70
2019-03-24 05:00:00 9.8 20 Nordeste 28 Nordeste 0 974.7 -0.6 64
2019-03-24 04:00:00 9.2 13 Nordeste 20 Nordeste 0 974.9 -0.6 67
2019-03-24 03:00:00 9.6 12 Nordeste 21 Nordeste 0 975.3 -0.5 68
2019-03-24 02:00:00 10.1 11 Nordeste 21 Nordeste 0 975.3 -0.5 68
2019-03-24 01:00:00 11.9 19 Nordeste 24 Nordeste 0 975.5 0.1 59
2019-03-24 00:00:00 12.6 14 Nordeste 20 Nordeste 0 975.8 0.8 57
2019-03-23 23:00:00 13.7 10 Nordeste 19 Este 0 975.8 1.3 53
2019-03-23 22:00:00 15 7 Este 9 Nordeste 0 975.4 1.1 48
2019-03-23 21:00:00 16.2 9 Sudeste 12 Sudeste 0 975 1.2 43
2019-03-23 20:00:00 17.5 3 Nordeste 14 Sudeste 0 974.5 0.9 35
2019-03-23 19:00:00 18.5 11 Sudeste 31 Este 0 974.3 0.2 32
2019-03-23 18:00:00 20 20 Este 46 Este 0 973.8 -0.3 28
2019-03-23 17:00:00 20 33 Este 52 Este 0 973.6 -1.5 27
2019-03-23 16:00:00 20.5 31 Este 59 Este 0 974.1 -1.8 29
2019-03-23 15:00:00 20.4 45 Nordeste 60 Nordeste 0 974.1 -2.1 25
2019-03-23 14:00:00 20.4 38 Nordeste 60 Este 0 975.1 -1.9 28
2019-03-23 13:00:00 19.8 38 Este 62 Nordeste 0 975.9 -2.1 27
2019-03-23 12:00:00 18.3 48 Nordeste 66 Este 0 976.2 -1.6 29
2019-03-23 11:00:00 17.2 35 Este 50 Este 0 977 -1 38
2019-03-23 10:00:00 13.1 25 Nordeste 33 Nordeste 0 978 0 51
2019-03-23 09:00:00 10.7 26 Nordeste 32 Nordeste 0 977.8 -0.2 59
2019-03-23 08:00:00 7.4 20 Este 27 Nordeste 0 978 -0.1 67
2019-03-23 07:00:00 4.6 7 Este 17 Este 0 978 -0.1 74
2019-03-23 06:00:00 6.6 12 Nordeste 19 Nordeste 0 978 -0.4 64
2019-03-23 05:00:00 6.9 12 Este 18 Este 0 978.1 -0.3 61
2019-03-23 04:00:00 8.3 12 Nordeste 20 Nordeste 0 978.1 -0.4 54
2019-03-23 03:00:00 8.2 14 Nordeste 18 Nordeste 0 978.4 -0.2 55
2019-03-23 02:00:00 7.9 10 Este 14 Este 0 978.4 -0.4 59
2019-03-23 01:00:00 10.5 9 Nordeste 13 Este 0 978.5 0 45
2019-03-23 00:00:00 11 8 Este 12 Nordeste 0 978.6 0.5 44
2019-03-22 23:00:00 12.4 9 Nordeste 17 Este 0 978.8 1.2 38
2019-03-22 22:00:00 13.4 11 Este 24 Nordeste 0 978.5 1.1 35
2019-03-22 21:00:00 14.9 21 Nordeste 28 Nordeste 0 978.1 0.9 31
2019-03-22 20:00:00 16 19 Nordeste 27 Nordeste 0 977.6 0.4 28
2019-03-22 19:00:00 16.9 21 Nordeste 40 Nordeste 0 977.4 -0.4 27
2019-03-22 18:00:00 17.8 30 Nordeste 40 Nordeste 0 977.2 -1.1 25
2019-03-22 17:00:00 18.6 28 Nordeste 40 Nordeste 0 977.2 -1.7 22
2019-03-22 16:00:00 18.5 23 Este 43 Este 0 977.8 -1.7 23
2019-03-22 15:00:00 18.2 23 Este 43 Este 0 978.3 -1.8 22
2019-03-22 14:00:00 17.9 25 Nordeste 56 Nordeste 0 978.9 -1.6 25
2019-03-22 13:00:00 16.1 29 Nordeste 42 Nordeste 0 979.5 -1.2 33
2019-03-22 12:00:00 15.1 17 Este 25 Este 0 980.1 -0.4 47
2019-03-22 11:00:00 12.8 19 Nordeste 25 Nordeste 0 980.5 0.4 55
2019-03-22 10:00:00 9.4 13 Este 17 Este 0 980.7 0.9 62
2019-03-22 09:00:00 6.3 7 Este 19 Nordeste 0 980.5 0.8 62
2019-03-22 08:00:00 1.1 10 Este 13 Este 0 980.1 0.4 81
2019-03-22 07:00:00 0.8 9 Nordeste 12 Sudeste 0 979.8 0.3 81
2019-03-22 06:00:00 2.6 3 Sudoeste 7 Este 0 979.7 0.3 73
2019-03-22 05:00:00 3.5 5 Oeste 9 Este 0 979.7 0.2 66
2019-03-22 04:00:00 3.3 5 Sudeste 10 Sudeste 0 979.5 -0.2 68
2019-03-22 03:00:00 5 7 Este 13 Este 0 979.4 -0.4 59
2019-03-22 02:00:00 7.2 3 Norte 8 Sudeste 0 979.5 -0.2 49
2019-03-22 01:00:00 8.7 3 Sur 18 Nordeste 0 979.7 0.3 43
2019-03-22 00:00:00 10.5 12 Nordeste 15 Nordeste 0 979.8 0.9 34
2019-03-21 23:00:00 9.8 11 Nordeste 15 Nordeste 0 979.7 1.4 37
2019-03-21 22:00:00 11.3 10 Este 26 Nordeste 0 979.4 1.2 33
2019-03-21 21:00:00 12.6 12 Nordeste 28 Nordeste 0 978.9 0.9 30
2019-03-21 20:00:00 14.4 20 Nordeste 26 Nordeste 0 978.3 0.3 25
2019-03-21 19:00:00 16 15 Nordeste 30 Este 0 978.2 -0.2 24
2019-03-21 18:00:00 17.3 19 Nordeste 33 Nordeste 0 978 -0.9 24
2019-03-21 17:00:00 17.7 21 Este 40 Este 0 978 -1.5 20
2019-03-21 16:00:00 18 20 Este 39 Nordeste 0 978.4 -1.6 24
2019-03-21 15:00:00 17.4 26 Nordeste 43 Nordeste 0 978.9 -1.7 22
2019-03-21 14:00:00 17 28 Nordeste 44 Nordeste 0 979.5 -1.5 30
2019-03-21 13:00:00 16.4 31 Este 46 Este 0 980 -1 36
2019-03-21 12:00:00 14.8 23 Nordeste 31 Nordeste 0 980.6 -0.5 46
2019-03-21 11:00:00 13.2 12 Este 19 Nordeste 0 981 0.4 56
2019-03-21 10:00:00 10 8 Este 13 Este 0 981 0.8 63
2019-03-21 09:00:00 4.6 9 Este 17 Nordeste 0 981.1 1.4 76
2019-03-21 08:00:00 2.8 4 Nordeste 13 Este 0 980.6 1.1 80
2019-03-21 07:00:00 2.5 12 Este 16 Este 0 980.2 1 80
2019-03-21 06:00:00 2.9 7 Este 11 Este 0 979.7 0.1 79
2019-03-21 05:00:00 3.9 2 Sur 13 Este 0 979.5 -0.3 76
2019-03-21 04:00:00 5.3 9 Este 12 Este 0 979.2 -0.6 68
2019-03-21 03:00:00 6.7 7 Nordeste 10 Este 0 979.6 -0.1 60
2019-03-21 02:00:00 7.1 7 Este 13 Nordeste 0 979.8 0 60
2019-03-21 01:00:00 9.6 9 Nordeste 15 Nordeste 0 979.8 0.2 46
2019-03-21 00:00:00 10.1 9 Nordeste 28 Nordeste 0 979.7 0.6 45